Sunday, September 23, 2018, 4:29 AM GMT
Back to Local

CYSJ, Saint John, N. B.

Location: , , Canada Lat: 45.333
Local Time: 4:29 AM GMT ( 4:29 GMT) Lon: -65.883
Time Zone: GMT Elev: 337 ft

Show me the last for .
Show Decoded

2018-09-23 04:00 METAR CYSJ 230400Z 00000KT 15SM BKN250 01/00 A3018 RMK CI6 SLP224 =
2018-09-23 03:00 METAR CYSJ 230300Z 00000KT 15SM BKN250 02/01 A3017 RMK CI6 SLP222 =
2018-09-23 02:00 METAR CYSJ 230200Z 00000KT 15SM BKN250 03/01 A3016 RMK CI6 SLP218 =
2018-09-23 01:00 METAR CYSJ 230100Z 20003KT 15SM BKN250 06/04 A3014 RMK CI5 SLP209 =
2018-09-23 00:00 METAR CYSJ 230000Z 28003KT 160V300 15SM SCT250 07/05 A3011 RMK CI4 PRESRR SLP200
                 =
2018-09-22 23:00 METAR CYSJ 222300Z 16003KT 110V210 15SM SCT250 09/05 A3008 RMK CI4 SLP189 =
2018-09-22 22:00 METAR CYSJ 222200Z 30004KT 15SM FEW150 BKN250 12/03 A3006 RMK AC2CI4 SLP184 =
2018-09-22 21:00 METAR CYSJ 222100Z 32010G19KT 15SM FEW150 BKN250 15/02 A3003 RMK AC2CI4 SLP170 =
2018-09-22 20:00 METAR CYSJ 222000Z 31016KT 15SM FEW150 BKN250 17/02 A3000 RMK AC2CI4 SLP163
                 DENSITY ALT 600FT =
2018-09-22 19:00 METAR CYSJ 221900Z 33019KT 15SM FEW150 BKN250 17/02 A2997 RMK AC2CI3 SLP151
                 DENSITY ALT 700FT =
2018-09-22 18:00 METAR CYSJ 221800Z 32017KT 15SM FEW120 BKN250 18/04 A2994 RMK AC1CI4 SLP143
                 DENSITY ALT 800FT =
2018-09-22 17:00 METAR CYSJ 221700Z 31019G28KT 15SM FEW050 FEW120 BKN250 18/04 A2991 RMK
                 SC1AC1CI3 SLP132 DENSITY ALT 800FT =
2018-09-22 16:00 METAR CYSJ 221600Z 34021G29KT 15SM FEW045 BKN250 18/06 A2989 RMK SC1CI5 SLP123
                 DENSITY ALT 900FT =
2018-09-22 15:00 METAR CYSJ 221500Z 31012G29KT 15SM FEW040 BKN250 18/09 A2985 RMK SC2CI4 PRESRR
                 SLP110 DENSITY ALT 900FT =
2018-09-22 14:00 METAR CYSJ 221400Z 30014G26KT 15SM FEW040 SCT100 BKN250 18/11 A2980 RMK
                 SC2AC2CI3 SLP095 DENSITY ALT 1000FT =
2018-09-22 13:00 METAR CYSJ 221300Z 29016G25KT 250V310 15SM FEW012 BKN035 BKN100 19/15 A2975 RMK
                 SC2SC3AC2 SLP078 DENSITY ALT 1200FT =
2018-09-22 12:17 METAR CYSJ 221217Z 23011KT 10SM FEW006 SCT012 BKN120 18/17 A2974 RMK SF1SC3AC2
                 SLP072 DENSITY ALT 1000FT =
2018-09-22 12:00 METAR CYSJ 221200Z 23012G19KT 6SM BR FEW003 BKN010 BKN100 17/16 A2973 RMK
                 SF2SC4AC1 SLP071 DENSITY ALT 900FT =
2018-09-22 11:54 METAR CYSJ 221154Z 23012G19KT 6SM BR SCT005 BKN012 OVC080 16/16 A2973 RMK
                 SF3SC4AC1 SLP071 DENSITY ALT 900FT =
2018-09-22 11:40 METAR CYSJ 221140Z 22012G18KT 3SM BR BKN004 BKN014 OVC078 16/16 A2973 RMK
                 SF5SC1AC2 SLP069 DENSITY ALT 800FT =
2018-09-22 11:24 METAR CYSJ 221124Z 23010G23KT 3SM BR BKN005 OVC010 16/16 A2972 RMK SF5SC3 SLP068
                 DENSITY ALT 800FT =
2018-09-22 11:00 METAR CYSJ 221100Z 22016G29KT 2SM -DZ BR OVC005 16/16 A2971 RMK SF8 SLP063
                 DENSITY ALT 800FT =
2018-09-22 10:52 METAR CYSJ 221052Z 22018G25KT 2SM -DZ BR OVC005 16/16 A2971 RMK SF8 SLP063
                 DENSITY ALT 800FT =
2018-09-22 10:00 METAR CYSJ 221000Z 22018G24KT 2SM -RA BR OVC005 16/16 A2971 RMK SF8 SLP064
                 DENSITY ALT 800FT =
2018-09-22 09:00 METAR CYSJ 220900Z 22018G28KT 2SM -RA BR OVC005 16/15 A2969 RMK SF8 SLP058
                 DENSITY ALT 800FT =
2018-09-22 08:34 METAR CYSJ 220834Z 21023G31KT 3SM -RA BR OVC006 15/15 A2970 RMK SF8 SLP059
                 DENSITY ALT 800FT =
2018-09-22 08:00 METAR CYSJ 220800Z 21023G33KT 4SM -RA BR OVC009 15/15 A2971 RMK SF8 SLP064
                 DENSITY ALT 800FT =
2018-09-22 07:11 METAR CYSJ 220711Z 21020G33KT 4SM -RA BR BKN009 OVC030 16/14 A2974 RMK SF6SC2
                 SLP075 DENSITY ALT 800FT =
2018-09-22 07:00 METAR CYSJ 220700Z 20026G36KT 8SM SCT012 OVC030 16/14 A2973 RMK SF4SC4 PRESFR
                 SLP071 DENSITY ALT 800FT =
2018-09-22 06:00 METAR CYSJ 220600Z 20026G37KT 8SM SCT012 OVC030 15/14 A2977 RMK SF3SC5 SLP085
                 DENSITY ALT 700FT =
2018-09-22 05:00 METAR CYSJ 220500Z 20029G41KT 8SM BKN010 OVC030 16/14 A2980 RMK SF7SC1 SLP093
                 DENSITY ALT 700FT =
2018-09-22 04:30 METAR CYSJ 220430Z 20027G38KT 8SM BKN013 OVC043 16/14 A2982 RMK SC6SC2 PRESFR
                 SLP101 DENSITY ALT 700FT =

Support USWX by starting your Amazon purchase here.